SUAASADF

Guest
Details From SUAA - ANGEL S ADAMI
To SADF - San Fernando
Flight Number -
Tags generated
Created
Modified
Stats Distance 117 nm / 216 km
Max Altitude 7,000 ft / 2,134 m
Waypoints 3
Social Downloads 0
Likes 0
Share VATSIM

Download

Looking for another format? Having issues loading an existing format? Contact us
Advertisement - Login to hide

Notes

Basic altitude profile: - Ascent Rate: 800ft/min - Ascent Speed: 140kts - Cruise Altitude: 8000ft - Cruise Speed: 180kts - Descent Rate: 500ft/min - Descent Speed: 180kts Options: - Use NATs: no - Use PACOTS: no - Use low airways: yes - Use high airways: no

Route

SUAA BERTA SADF

ID Type Via Altitude Latitude Longitude Leg Dist Tot Dist Heading (true) Name
O SUAA APT - 0 ft / 0 m -34.78910˚ -56.26470˚ - 0 nm - ANGEL S ADAMI
BERTA FIX - 7,000 ft / 2,134 m -34.70056˚ -56.64889˚ 19 nm 19 nm 286° / 286° -
O SADF APT - 0 ft / 0 m -34.45404˚ -58.59023˚ 97 nm 116 nm 278° / 279° San Fernando

Altitude Profile

Advertisement - Login to hide

SUAA

Details ICAO SUAA
Name ANGEL S ADAMI
Region Uruguay
Timezone America/Montevideo (UTC-3.0)
Stats Elevation 174 ft / 53 m (AMSL)
Location -34.789096° -56.264702°
Runways 1
Magnetic Variation 10.726° W

METAR

Not found

TAF

TAF SUAA 252330Z 2600/2624 03005KT CAVOK TX20/2618Z TN09/2610Z TEMPO 2600/2612 3000 BR NSC PROB30 TEMPO 2600/2608 0800 BCFG

Decode

Departure Runways

ID Width Length Bearing (true) Bearing (mag) Surface Threshold Offset Overrun Length
18 75 ft / 23 m 4,194 ft / 1,278 m 176.77° 187.50° Concrete 0 ft / 0 m 0 ft / 0 m
36 75 ft / 23 m 4,194 ft / 1,278 m 356.77° 7.50° Concrete 0 ft / 0 m 0 ft / 0 m

SADF

Details ICAO SADF
Name San Fernando
Region Argentina
Timezone America/Argentina/Buenos_Aires (UTC-3.0)
Stats Elevation 10 ft / 3 m (AMSL)
Location -34.454044° -58.590226°
Runways 1
Magnetic Variation 8.966° W

METAR

SADF 260400Z 36003KT CAVOK 11/08 Q1019

Decode

TAF

TAF SADF 252300Z 2600/2624 34010KT CAVOK TX20/2618Z TN08/2609Z BECMG 2607/2609 02010KT

Decode

Destination Runways

ID Width Length Bearing (true) Bearing (mag) Surface Threshold Offset Overrun Length
05 131 ft / 40 m 5,904 ft / 1,800 m 44.03° 53.00° Asphalt 0 ft / 0 m 0 ft / 0 m
23 131 ft / 40 m 5,904 ft / 1,800 m 224.02° 232.99° Asphalt 899 ft / 274 m 0 ft / 0 m

Popular Alternatives